sensor_id;sensor_type;location;lat;lon;timestamp;temperature;humidity
18868;DHT22;9563;49.240;9.088;2022-07-29T00:00:23;21.30;99.90
18868;DHT22;9563;49.240;9.088;2022-07-29T00:02:50;21.30;99.90
18868;DHT22;9563;49.240;9.088;2022-07-29T00:05:17;21.20;99.90
18868;DHT22;9563;49.240;9.088;2022-07-29T00:07:45;21.20;99.90
18868;DHT22;9563;49.240;9.088;2022-07-29T00:10:12;21.20;99.90
18868;DHT22;9563;49.240;9.088;2022-07-29T00:12:39;21.10;99.90
18868;DHT22;9563;49.240;9.088;2022-07-29T00:15:07;21.10;99.90
18868;DHT22;9563;49.240;9.088;2022-07-29T00:17:34;21.10;99.90
18868;DHT22;9563;49.240;9.088;2022-07-29T00:20:02;21.10;99.90
18868;DHT22;9563;49.240;9.088;2022-07-29T00:22:29;21.00;99.90
18868;DHT22;9563;49.240;9.088;2022-07-29T00:24:57;20.90;99.90
18868;DHT22;9563;49.240;9.088;2022-07-29T00:27:24;20.80;99.90
18868;DHT22;9563;49.240;9.088;2022-07-29T00:29:51;20.70;99.90
18868;DHT22;9563;49.240;9.088;2022-07-29T00:32:19;20.70;99.90
18868;DHT22;9563;49.240;9.088;2022-07-29T00:34:45;20.70;99.90
18868;DHT22;9563;49.240;9.088;2022-07-29T00:37:30;20.60;99.90
18868;DHT22;9563;49.240;9.088;2022-07-29T00:39:58;20.60;99.90
18868;DHT22;9563;49.240;9.088;2022-07-29T00:42:25;20.60;99.90
18868;DHT22;9563;49.240;9.088;2022-07-29T00:44:54;20.70;99.90
18868;DHT22;9563;49.240;9.088;2022-07-29T00:47:20;20.70;99.90
18868;DHT22;9563;49.240;9.088;2022-07-29T00:49:48;20.70;99.90
18868;DHT22;9563;49.240;9.088;2022-07-29T00:52:15;20.70;99.90
18868;DHT22;9563;49.240;9.088;2022-07-29T00:54:42;20.70;99.90
18868;DHT22;9563;49.240;9.088;2022-07-29T00:57:11;20.70;99.90
18868;DHT22;9563;49.240;9.088;2022-07-29T00:59:39;20.60;99.90
18868;DHT22;9563;49.240;9.088;2022-07-29T01:02:06;20.50;99.90
18868;DHT22;9563;49.240;9.088;2022-07-29T01:04:33;20.50;99.90
18868;DHT22;9563;49.240;9.088;2022-07-29T01:07:01;20.50;99.90
18868;DHT22;9563;49.240;9.088;2022-07-29T01:09:29;20.60;99.90
18868;DHT22;9563;49.240;9.088;2022-07-29T01:11:56;20.50;99.90
18868;DHT22;9563;49.240;9.088;2022-07-29T01:14:25;20.50;99.90
18868;DHT22;9563;49.240;9.088;2022-07-29T01:16:58;20.50;99.90
18868;DHT22;9563;49.240;9.088;2022-07-29T01:19:44;20.50;99.90
18868;DHT22;9563;49.240;9.088;2022-07-29T01:22:24;20.50;99.90
18868;DHT22;9563;49.240;9.088;2022-07-29T01:25:05;20.50;99.90
18868;DHT22;9563;49.240;9.088;2022-07-29T01:27:51;20.60;99.90
18868;DHT22;9563;49.240;9.088;2022-07-29T01:30:22;20.50;99.90
18868;DHT22;9563;49.240;9.088;2022-07-29T01:32:55;20.60;99.90
18868;DHT22;9563;49.240;9.088;2022-07-29T01:35:25;20.50;99.90
18868;DHT22;9563;49.240;9.088;2022-07-29T01:37:59;20.50;99.90
18868;DHT22;9563;49.240;9.088;2022-07-29T01:40:30;20.50;99.90
18868;DHT22;9563;49.240;9.088;2022-07-29T01:43:05;20.40;99.90
18868;DHT22;9563;49.240;9.088;2022-07-29T01:45:38;20.40;99.90
18868;DHT22;9563;49.240;9.088;2022-07-29T01:48:12;20.30;99.90
18868;DHT22;9563;49.240;9.088;2022-07-29T01:50:45;20.30;99.90
18868;DHT22;9563;49.240;9.088;2022-07-29T01:53:16;20.20;99.90
18868;DHT22;9563;49.240;9.088;2022-07-29T01:55:48;20.20;99.90
18868;DHT22;9563;49.240;9.088;2022-07-29T01:58:18;20.10;99.90
18868;DHT22;9563;49.240;9.088;2022-07-29T02:00:48;20.10;99.90
18868;DHT22;9563;49.240;9.088;2022-07-29T02:03:17;20.10;99.90
18868;DHT22;9563;49.240;9.088;2022-07-29T02:05:47;20.10;99.90
18868;DHT22;9563;49.240;9.088;2022-07-29T02:08:15;20.10;99.90
18868;DHT22;9563;49.240;9.088;2022-07-29T02:10:44;20.10;99.90
18868;DHT22;9563;49.240;9.088;2022-07-29T02:13:12;20.00;99.90
18868;DHT22;9563;49.240;9.088;2022-07-29T02:15:42;20.00;99.90
18868;DHT22;9563;49.240;9.088;2022-07-29T02:18:14;20.00;99.90
18868;DHT22;9563;49.240;9.088;2022-07-29T02:20:45;20.00;99.90
18868;DHT22;9563;49.240;9.088;2022-07-29T02:23:15;20.00;99.90
18868;DHT22;9563;49.240;9.088;2022-07-29T02:25:44;19.90;99.90
18868;DHT22;9563;49.240;9.088;2022-07-29T02:28:12;19.90;99.90
18868;DHT22;9563;49.240;9.088;2022-07-29T02:30:41;19.90;99.90
18868;DHT22;9563;49.240;9.088;2022-07-29T02:33:14;19.90;99.90
18868;DHT22;9563;49.240;9.088;2022-07-29T02:35:43;19.90;99.90
18868;DHT22;9563;49.240;9.088;2022-07-29T02:38:15;19.90;99.90
18868;DHT22;9563;49.240;9.088;2022-07-29T02:41:01;19.80;99.90
18868;DHT22;9563;49.240;9.088;2022-07-29T02:43:30;19.80;99.90
18868;DHT22;9563;49.240;9.088;2022-07-29T02:45:59;19.80;99.90
18868;DHT22;9563;49.240;9.088;2022-07-29T02:48:34;19.80;99.90
18868;DHT22;9563;49.240;9.088;2022-07-29T02:51:06;19.70;99.90
18868;DHT22;9563;49.240;9.088;2022-07-29T02:53:35;19.70;99.90
18868;DHT22;9563;49.240;9.088;2022-07-29T02:56:08;19.60;99.90
18868;DHT22;9563;49.240;9.088;2022-07-29T02:58:40;19.60;99.90
18868;DHT22;9563;49.240;9.088;2022-07-29T03:01:12;19.60;99.90
18868;DHT22;9563;49.240;9.088;2022-07-29T03:03:43;19.50;99.90
18868;DHT22;9563;49.240;9.088;2022-07-29T03:06:12;19.50;99.90
18868;DHT22;9563;49.240;9.088;2022-07-29T03:08:40;19.50;99.90
18868;DHT22;9563;49.240;9.088;2022-07-29T03:11:08;19.50;99.90
18868;DHT22;9563;49.240;9.088;2022-07-29T03:13:35;19.50;99.90
18868;DHT22;9563;49.240;9.088;2022-07-29T03:16:04;19.50;99.90
18868;DHT22;9563;49.240;9.088;2022-07-29T03:18:32;19.60;99.90
18868;DHT22;9563;49.240;9.088;2022-07-29T03:21:01;19.60;99.90
18868;DHT22;9563;49.240;9.088;2022-07-29T03:23:29;19.50;99.90
18868;DHT22;9563;49.240;9.088;2022-07-29T03:25:56;19.50;99.90
18868;DHT22;9563;49.240;9.088;2022-07-29T03:28:23;19.40;99.90
18868;DHT22;9563;49.240;9.088;2022-07-29T03:30:53;19.50;99.90
18868;DHT22;9563;49.240;9.088;2022-07-29T03:33:20;19.40;99.90
18868;DHT22;9563;49.240;9.088;2022-07-29T03:35:47;19.30;99.90
18868;DHT22;9563;49.240;9.088;2022-07-29T03:38:16;19.20;99.90
18868;DHT22;9563;49.240;9.088;2022-07-29T03:40:48;19.20;99.90
18868;DHT22;9563;49.240;9.088;2022-07-29T03:43:17;19.20;99.90
18868;DHT22;9563;49.240;9.088;2022-07-29T03:45:48;19.20;99.90
18868;DHT22;9563;49.240;9.088;2022-07-29T03:48:19;19.20;99.90
18868;DHT22;9563;49.240;9.088;2022-07-29T03:50:46;19.10;99.90
18868;DHT22;9563;49.240;9.088;2022-07-29T03:53:13;19.00;99.90
18868;DHT22;9563;49.240;9.088;2022-07-29T03:55:44;18.90;99.90
18868;DHT22;9563;49.240;9.088;2022-07-29T03:58:13;18.90;99.90
18868;DHT22;9563;49.240;9.088;2022-07-29T04:00:42;18.90;99.90
18868;DHT22;9563;49.240;9.088;2022-07-29T04:03:10;18.90;99.90
18868;DHT22;9563;49.240;9.088;2022-07-29T04:05:37;18.80;99.90
18868;DHT22;9563;49.240;9.088;2022-07-29T04:08:05;18.80;99.90
18868;DHT22;9563;49.240;9.088;2022-07-29T04:10:32;18.70;99.90
18868;DHT22;9563;49.240;9.088;2022-07-29T04:13:01;18.60;99.90
18868;DHT22;9563;49.240;9.088;2022-07-29T04:15:28;18.60;99.90
18868;DHT22;9563;49.240;9.088;2022-07-29T04:17:55;18.60;99.90
18868;DHT22;9563;49.240;9.088;2022-07-29T04:20:22;18.60;99.90
18868;DHT22;9563;49.240;9.088;2022-07-29T04:22:49;18.60;99.90
18868;DHT22;9563;49.240;9.088;2022-07-29T04:25:16;18.60;99.90
18868;DHT22;9563;49.240;9.088;2022-07-29T04:27:42;18.60;99.90
18868;DHT22;9563;49.240;9.088;2022-07-29T04:30:25;18.60;99.90
18868;DHT22;9563;49.240;9.088;2022-07-29T04:32:52;18.60;99.90
18868;DHT22;9563;49.240;9.088;2022-07-29T04:35:19;18.60;99.90
18868;DHT22;9563;49.240;9.088;2022-07-29T04:37:46;18.60;99.90
18868;DHT22;9563;49.240;9.088;2022-07-29T04:40:13;18.60;99.90
18868;DHT22;9563;49.240;9.088;2022-07-29T04:42:40;18.60;99.90
18868;DHT22;9563;49.240;9.088;2022-07-29T04:45:07;18.50;99.90
18868;DHT22;9563;49.240;9.088;2022-07-29T04:47:36;18.50;99.90
18868;DHT22;9563;49.240;9.088;2022-07-29T04:50:04;18.50;99.90
18868;DHT22;9563;49.240;9.088;2022-07-29T04:52:32;18.50;99.90
18868;DHT22;9563;49.240;9.088;2022-07-29T04:55:00;18.50;99.90
18868;DHT22;9563;49.240;9.088;2022-07-29T04:57:27;18.50;99.90
18868;DHT22;9563;49.240;9.088;2022-07-29T04:59:53;18.60;99.90
18868;DHT22;9563;49.240;9.088;2022-07-29T05:02:20;18.70;99.90
18868;DHT22;9563;49.240;9.088;2022-07-29T05:04:49;18.70;99.90
18868;DHT22;9563;49.240;9.088;2022-07-29T05:07:16;18.70;99.90
18868;DHT22;9563;49.240;9.088;2022-07-29T05:09:43;18.70;99.90
18868;DHT22;9563;49.240;9.088;2022-07-29T05:12:10;18.70;99.90
18868;DHT22;9563;49.240;9.088;2022-07-29T05:14:37;18.80;99.90
18868;DHT22;9563;49.240;9.088;2022-07-29T05:17:04;18.80;99.90
18868;DHT22;9563;49.240;9.088;2022-07-29T05:19:32;18.90;99.90
18868;DHT22;9563;49.240;9.088;2022-07-29T05:25:07;19.20;99.90
18868;DHT22;9563;49.240;9.088;2022-07-29T05:27:35;19.20;99.90
18868;DHT22;9563;49.240;9.088;2022-07-29T05:30:05;19.30;99.90
18868;DHT22;9563;49.240;9.088;2022-07-29T05:32:32;19.40;99.90
18868;DHT22;9563;49.240;9.088;2022-07-29T05:34:59;19.40;99.90
18868;DHT22;9563;49.240;9.088;2022-07-29T05:37:28;19.50;99.90
18868;DHT22;9563;49.240;9.088;2022-07-29T05:39:55;19.50;99.90
18868;DHT22;9563;49.240;9.088;2022-07-29T05:42:22;19.60;99.90
18868;DHT22;9563;49.240;9.088;2022-07-29T05:44:48;19.60;99.90
18868;DHT22;9563;49.240;9.088;2022-07-29T05:47:16;19.50;99.90
18868;DHT22;9563;49.240;9.088;2022-07-29T05:49:43;19.50;99.90
18868;DHT22;9563;49.240;9.088;2022-07-29T05:52:10;19.60;99.90
18868;DHT22;9563;49.240;9.088;2022-07-29T05:54:40;19.60;99.90
18868;DHT22;9563;49.240;9.088;2022-07-29T05:57:07;19.60;99.90
18868;DHT22;9563;49.240;9.088;2022-07-29T05:59:35;19.60;99.90
18868;DHT22;9563;49.240;9.088;2022-07-29T06:02:02;19.80;99.90
18868;DHT22;9563;49.240;9.088;2022-07-29T06:04:30;19.80;99.90
18868;DHT22;9563;49.240;9.088;2022-07-29T06:06:57;19.80;99.90
18868;DHT22;9563;49.240;9.088;2022-07-29T06:09:34;19.80;99.90
18868;DHT22;9563;49.240;9.088;2022-07-29T06:12:04;19.90;99.90
18868;DHT22;9563;49.240;9.088;2022-07-29T06:14:31;19.90;99.90
18868;DHT22;9563;49.240;9.088;2022-07-29T06:16:58;20.10;99.90
18868;DHT22;9563;49.240;9.088;2022-07-29T06:19:25;20.20;99.90
18868;DHT22;9563;49.240;9.088;2022-07-29T06:21:52;20.30;99.90
18868;DHT22;9563;49.240;9.088;2022-07-29T06:24:19;20.50;99.90
18868;DHT22;9563;49.240;9.088;2022-07-29T06:26:46;20.60;99.90
18868;DHT22;9563;49.240;9.088;2022-07-29T06:29:15;20.70;99.90
18868;DHT22;9563;49.240;9.088;2022-07-29T06:31:42;20.80;99.90
18868;DHT22;9563;49.240;9.088;2022-07-29T06:34:09;20.80;99.90
18868;DHT22;9563;49.240;9.088;2022-07-29T06:36:36;20.90;99.90
18868;DHT22;9563;49.240;9.088;2022-07-29T06:39:05;20.90;99.90
18868;DHT22;9563;49.240;9.088;2022-07-29T06:41:33;20.90;99.90
18868;DHT22;9563;49.240;9.088;2022-07-29T06:44:01;21.00;99.90
18868;DHT22;9563;49.240;9.088;2022-07-29T06:46:29;21.00;99.90
18868;DHT22;9563;49.240;9.088;2022-07-29T06:48:57;21.20;99.90
18868;DHT22;9563;49.240;9.088;2022-07-29T06:51:26;21.40;99.90
18868;DHT22;9563;49.240;9.088;2022-07-29T06:53:53;21.50;99.90
18868;DHT22;9563;49.240;9.088;2022-07-29T06:56:20;21.60;99.90
18868;DHT22;9563;49.240;9.088;2022-07-29T06:58:47;21.70;99.90
18868;DHT22;9563;49.240;9.088;2022-07-29T07:01:14;21.80;99.90
18868;DHT22;9563;49.240;9.088;2022-07-29T07:03:42;21.90;99.90
18868;DHT22;9563;49.240;9.088;2022-07-29T07:06:09;21.90;99.90
18868;DHT22;9563;49.240;9.088;2022-07-29T07:08:36;22.00;99.90
18868;DHT22;9563;49.240;9.088;2022-07-29T07:11:03;22.00;99.90
18868;DHT22;9563;49.240;9.088;2022-07-29T07:13:31;22.00;99.90
18868;DHT22;9563;49.240;9.088;2022-07-29T07:16:00;22.10;99.90
18868;DHT22;9563;49.240;9.088;2022-07-29T07:18:27;22.10;99.90
18868;DHT22;9563;49.240;9.088;2022-07-29T07:20:57;22.30;99.90
18868;DHT22;9563;49.240;9.088;2022-07-29T07:23:25;22.50;99.90
18868;DHT22;9563;49.240;9.088;2022-07-29T07:25:52;22.70;99.90
18868;DHT22;9563;49.240;9.088;2022-07-29T07:28:19;22.90;99.90
18868;DHT22;9563;49.240;9.088;2022-07-29T07:30:46;23.10;99.90
18868;DHT22;9563;49.240;9.088;2022-07-29T07:33:13;23.30;99.90
18868;DHT22;9563;49.240;9.088;2022-07-29T07:35:41;23.30;99.90
18868;DHT22;9563;49.240;9.088;2022-07-29T07:38:09;23.50;99.90
18868;DHT22;9563;49.240;9.088;2022-07-29T07:40:36;23.60;99.90
18868;DHT22;9563;49.240;9.088;2022-07-29T07:43:04;23.70;99.90
18868;DHT22;9563;49.240;9.088;2022-07-29T07:45:30;23.90;99.90
18868;DHT22;9563;49.240;9.088;2022-07-29T07:47:59;24.20;99.90
18868;DHT22;9563;49.240;9.088;2022-07-29T07:50:26;24.30;99.90
18868;DHT22;9563;49.240;9.088;2022-07-29T07:52:54;24.30;99.90
18868;DHT22;9563;49.240;9.088;2022-07-29T07:55:25;24.40;99.90
18868;DHT22;9563;49.240;9.088;2022-07-29T07:57:52;24.80;99.90
18868;DHT22;9563;49.240;9.088;2022-07-29T08:00:19;24.70;99.90
18868;DHT22;9563;49.240;9.088;2022-07-29T08:02:46;25.10;99.90
18868;DHT22;9563;49.240;9.088;2022-07-29T08:05:14;25.30;99.90
18868;DHT22;9563;49.240;9.088;2022-07-29T08:07:44;25.50;99.90
18868;DHT22;9563;49.240;9.088;2022-07-29T08:10:12;25.20;99.90
18868;DHT22;9563;49.240;9.088;2022-07-29T08:12:40;24.90;99.90
18868;DHT22;9563;49.240;9.088;2022-07-29T08:15:08;24.90;99.90
18868;DHT22;9563;49.240;9.088;2022-07-29T08:17:36;25.10;99.90
18868;DHT22;9563;49.240;9.088;2022-07-29T08:20:04;25.00;99.90
18868;DHT22;9563;49.240;9.088;2022-07-29T08:22:31;24.90;99.90
18868;DHT22;9563;49.240;9.088;2022-07-29T08:25:05;25.00;99.90
18868;DHT22;9563;49.240;9.088;2022-07-29T08:27:34;25.20;99.90
18868;DHT22;9563;49.240;9.088;2022-07-29T08:30:03;25.30;99.90
18868;DHT22;9563;49.240;9.088;2022-07-29T08:32:31;25.50;99.90
18868;DHT22;9563;49.240;9.088;2022-07-29T08:34:58;25.70;99.90
18868;DHT22;9563;49.240;9.088;2022-07-29T08:37:25;25.90;99.90
18868;DHT22;9563;49.240;9.088;2022-07-29T08:39:52;26.30;99.90
18868;DHT22;9563;49.240;9.088;2022-07-29T08:42:19;26.50;99.90
18868;DHT22;9563;49.240;9.088;2022-07-29T08:44:47;26.60;99.90
18868;DHT22;9563;49.240;9.088;2022-07-29T08:47:15;26.70;99.90
18868;DHT22;9563;49.240;9.088;2022-07-29T08:49:43;26.40;99.90
18868;DHT22;9563;49.240;9.088;2022-07-29T08:52:12;26.50;99.90
18868;DHT22;9563;49.240;9.088;2022-07-29T08:54:40;26.60;99.90
18868;DHT22;9563;49.240;9.088;2022-07-29T08:57:11;26.60;99.90
18868;DHT22;9563;49.240;9.088;2022-07-29T08:59:40;26.50;99.90
18868;DHT22;9563;49.240;9.088;2022-07-29T09:02:12;26.30;99.90
18868;DHT22;9563;49.240;9.088;2022-07-29T09:04:43;26.20;99.90
18868;DHT22;9563;49.240;9.088;2022-07-29T09:07:14;26.00;99.90
18868;DHT22;9563;49.240;9.088;2022-07-29T09:09:42;25.90;99.90
18868;DHT22;9563;49.240;9.088;2022-07-29T09:12:09;25.80;99.90
18868;DHT22;9563;49.240;9.088;2022-07-29T09:14:37;25.90;99.90
18868;DHT22;9563;49.240;9.088;2022-07-29T09:17:04;26.00;99.90
18868;DHT22;9563;49.240;9.088;2022-07-29T09:19:33;26.20;99.90
18868;DHT22;9563;49.240;9.088;2022-07-29T09:22:04;26.30;99.90
18868;DHT22;9563;49.240;9.088;2022-07-29T09:24:40;26.40;99.90
18868;DHT22;9563;49.240;9.088;2022-07-29T09:27:22;26.70;99.90
18868;DHT22;9563;49.240;9.088;2022-07-29T09:29:59;27.00;99.90
18868;DHT22;9563;49.240;9.088;2022-07-29T09:32:26;27.10;99.90
18868;DHT22;9563;49.240;9.088;2022-07-29T09:35:16;27.40;99.90
18868;DHT22;9563;49.240;9.088;2022-07-29T09:37:45;27.50;99.90
18868;DHT22;9563;49.240;9.088;2022-07-29T09:40:15;27.80;99.90
18868;DHT22;9563;49.240;9.088;2022-07-29T09:42:42;28.10;99.90
18868;DHT22;9563;49.240;9.088;2022-07-29T09:45:10;28.50;99.90
18868;DHT22;9563;49.240;9.088;2022-07-29T09:47:45;28.50;99.90
18868;DHT22;9563;49.240;9.088;2022-07-29T09:50:15;28.80;99.90
18868;DHT22;9563;49.240;9.088;2022-07-29T09:52:47;28.80;99.90
18868;DHT22;9563;49.240;9.088;2022-07-29T09:55:16;29.10;99.90
18868;DHT22;9563;49.240;9.088;2022-07-29T09:57:44;28.80;99.90
18868;DHT22;9563;49.240;9.088;2022-07-29T10:00:13;28.40;99.90
18868;DHT22;9563;49.240;9.088;2022-07-29T10:02:43;28.30;99.90
18868;DHT22;9563;49.240;9.088;2022-07-29T10:05:19;28.10;99.90
18868;DHT22;9563;49.240;9.088;2022-07-29T10:07:49;28.50;99.90
18868;DHT22;9563;49.240;9.088;2022-07-29T10:10:21;28.60;99.90
18868;DHT22;9563;49.240;9.088;2022-07-29T10:12:50;28.70;99.90
18868;DHT22;9563;49.240;9.088;2022-07-29T10:15:18;28.50;99.90
18868;DHT22;9563;49.240;9.088;2022-07-29T10:17:45;28.30;99.90
18868;DHT22;9563;49.240;9.088;2022-07-29T10:20:13;28.10;99.90
18868;DHT22;9563;49.240;9.088;2022-07-29T10:22:41;28.20;99.90
18868;DHT22;9563;49.240;9.088;2022-07-29T10:25:11;28.30;99.90
18868;DHT22;9563;49.240;9.088;2022-07-29T10:27:38;28.50;99.90
18868;DHT22;9563;49.240;9.088;2022-07-29T10:30:06;28.60;99.90
18868;DHT22;9563;49.240;9.088;2022-07-29T10:32:40;28.70;99.90
18868;DHT22;9563;49.240;9.088;2022-07-29T10:35:32;28.80;99.90
18868;DHT22;9563;49.240;9.088;2022-07-29T10:38:11;29.00;99.90
18868;DHT22;9563;49.240;9.088;2022-07-29T10:41:07;29.00;98.40
18868;DHT22;9563;49.240;9.088;2022-07-29T10:43:59;29.30;99.20
18868;DHT22;9563;49.240;9.088;2022-07-29T10:46:28;29.00;97.70
18868;DHT22;9563;49.240;9.088;2022-07-29T10:49:06;29.00;98.50
18868;DHT22;9563;49.240;9.088;2022-07-29T10:52:07;29.00;98.40
18868;DHT22;9563;49.240;9.088;2022-07-29T10:54:52;29.00;99.00
18868;DHT22;9563;49.240;9.088;2022-07-29T10:57:23;29.40;99.90
18868;DHT22;9563;49.240;9.088;2022-07-29T11:00:28;29.60;99.50
18868;DHT22;9563;49.240;9.088;2022-07-29T11:02:56;29.90;98.40
18868;DHT22;9563;49.240;9.088;2022-07-29T11:05:24;30.00;97.40
18868;DHT22;9563;49.240;9.088;2022-07-29T11:08:20;30.50;99.20
18868;DHT22;9563;49.240;9.088;2022-07-29T11:10:50;30.70;96.10
18868;DHT22;9563;49.240;9.088;2022-07-29T11:13:46;30.70;95.90
18868;DHT22;9563;49.240;9.088;2022-07-29T11:16:14;30.90;96.30
18868;DHT22;9563;49.240;9.088;2022-07-29T11:21:44;31.00;96.90
18868;DHT22;9563;49.240;9.088;2022-07-29T11:24:13;31.20;95.00
18868;DHT22;9563;49.240;9.088;2022-07-29T11:26:41;31.30;95.50
18868;DHT22;9563;49.240;9.088;2022-07-29T11:29:18;31.40;94.90
18868;DHT22;9563;49.240;9.088;2022-07-29T11:31:47;31.40;93.60
18868;DHT22;9563;49.240;9.088;2022-07-29T11:34:22;31.50;94.90
18868;DHT22;9563;49.240;9.088;2022-07-29T11:37:21;31.80;95.20
18868;DHT22;9563;49.240;9.088;2022-07-29T11:40:14;31.80;95.40
18868;DHT22;9563;49.240;9.088;2022-07-29T11:42:45;32.00;95.60
18868;DHT22;9563;49.240;9.088;2022-07-29T11:45:26;32.00;94.80
18868;DHT22;9563;49.240;9.088;2022-07-29T11:48:20;32.10;93.10
18868;DHT22;9563;49.240;9.088;2022-07-29T11:50:50;31.90;93.20
18868;DHT22;9563;49.240;9.088;2022-07-29T11:53:23;32.00;93.70
18868;DHT22;9563;49.240;9.088;2022-07-29T11:55:55;32.00;91.60
18868;DHT22;9563;49.240;9.088;2022-07-29T11:58:22;32.00;92.10
18868;DHT22;9563;49.240;9.088;2022-07-29T12:00:56;32.20;91.80
18868;DHT22;9563;49.240;9.088;2022-07-29T12:03:29;32.20;91.90
18868;DHT22;9563;49.240;9.088;2022-07-29T12:05:58;32.30;91.80
18868;DHT22;9563;49.240;9.088;2022-07-29T12:08:40;32.10;88.00
18868;DHT22;9563;49.240;9.088;2022-07-29T12:11:18;32.30;90.60
18868;DHT22;9563;49.240;9.088;2022-07-29T12:13:50;32.20;90.50
18868;DHT22;9563;49.240;9.088;2022-07-29T12:16:19;32.40;88.70
18868;DHT22;9563;49.240;9.088;2022-07-29T12:18:55;32.40;87.10
18868;DHT22;9563;49.240;9.088;2022-07-29T12:21:22;32.40;88.40
18868;DHT22;9563;49.240;9.088;2022-07-29T12:23:54;32.20;83.10
18868;DHT22;9563;49.240;9.088;2022-07-29T12:26:22;32.10;83.20
18868;DHT22;9563;49.240;9.088;2022-07-29T12:28:53;31.80;82.60
18868;DHT22;9563;49.240;9.088;2022-07-29T12:31:21;31.80;84.10
18868;DHT22;9563;49.240;9.088;2022-07-29T12:33:53;31.70;85.60
18868;DHT22;9563;49.240;9.088;2022-07-29T12:36:24;31.80;85.30
18868;DHT22;9563;49.240;9.088;2022-07-29T12:38:51;31.60;85.00
18868;DHT22;9563;49.240;9.088;2022-07-29T12:41:21;31.30;85.90
18868;DHT22;9563;49.240;9.088;2022-07-29T12:43:53;31.00;86.60
18868;DHT22;9563;49.240;9.088;2022-07-29T12:46:21;30.70;85.10
18868;DHT22;9563;49.240;9.088;2022-07-29T12:48:51;30.60;88.20
18868;DHT22;9563;49.240;9.088;2022-07-29T12:51:30;30.80;89.40
18868;DHT22;9563;49.240;9.088;2022-07-29T12:54:06;30.80;87.10
18868;DHT22;9563;49.240;9.088;2022-07-29T12:56:37;30.70;84.30
18868;DHT22;9563;49.240;9.088;2022-07-29T12:59:24;30.70;83.50
18868;DHT22;9563;49.240;9.088;2022-07-29T13:01:54;30.60;83.00
18868;DHT22;9563;49.240;9.088;2022-07-29T13:04:25;30.50;82.70
18868;DHT22;9563;49.240;9.088;2022-07-29T13:06:59;30.20;81.50
18868;DHT22;9563;49.240;9.088;2022-07-29T13:09:38;30.00;82.80
18868;DHT22;9563;49.240;9.088;2022-07-29T13:12:07;29.80;83.80
18868;DHT22;9563;49.240;9.088;2022-07-29T13:14:37;29.60;85.10
18868;DHT22;9563;49.240;9.088;2022-07-29T13:17:09;29.50;85.60
18868;DHT22;9563;49.240;9.088;2022-07-29T13:19:39;29.30;85.50
18868;DHT22;9563;49.240;9.088;2022-07-29T13:22:07;29.30;86.90
18868;DHT22;9563;49.240;9.088;2022-07-29T13:24:45;29.20;83.20
18868;DHT22;9563;49.240;9.088;2022-07-29T13:27:13;29.20;84.80
18868;DHT22;9563;49.240;9.088;2022-07-29T13:29:40;29.10;83.30
18868;DHT22;9563;49.240;9.088;2022-07-29T13:32:10;29.00;82.80
18868;DHT22;9563;49.240;9.088;2022-07-29T13:34:45;28.90;83.60
18868;DHT22;9563;49.240;9.088;2022-07-29T13:37:31;28.90;84.40
18868;DHT22;9563;49.240;9.088;2022-07-29T13:40:20;28.80;85.00
18868;DHT22;9563;49.240;9.088;2022-07-29T13:42:52;28.70;85.20
18868;DHT22;9563;49.240;9.088;2022-07-29T13:45:24;28.60;86.20
18868;DHT22;9563;49.240;9.088;2022-07-29T13:48:13;28.40;86.40
18868;DHT22;9563;49.240;9.088;2022-07-29T13:50:46;28.40;87.80
18868;DHT22;9563;49.240;9.088;2022-07-29T13:53:13;28.40;87.30
18868;DHT22;9563;49.240;9.088;2022-07-29T13:55:41;28.20;88.60
18868;DHT22;9563;49.240;9.088;2022-07-29T13:58:08;28.10;86.50
18868;DHT22;9563;49.240;9.088;2022-07-29T14:00:35;28.10;89.30
18868;DHT22;9563;49.240;9.088;2022-07-29T14:03:07;28.00;88.70
18868;DHT22;9563;49.240;9.088;2022-07-29T14:05:35;27.80;87.70
18868;DHT22;9563;49.240;9.088;2022-07-29T14:08:02;27.60;88.20
18868;DHT22;9563;49.240;9.088;2022-07-29T14:10:29;27.60;89.10
18868;DHT22;9563;49.240;9.088;2022-07-29T14:12:56;27.60;89.30
18868;DHT22;9563;49.240;9.088;2022-07-29T14:15:23;27.60;90.00
18868;DHT22;9563;49.240;9.088;2022-07-29T14:17:50;27.50;90.10
18868;DHT22;9563;49.240;9.088;2022-07-29T14:20:18;27.50;90.10
18868;DHT22;9563;49.240;9.088;2022-07-29T14:22:53;27.60;90.40
18868;DHT22;9563;49.240;9.088;2022-07-29T14:25:23;27.60;89.40
18868;DHT22;9563;49.240;9.088;2022-07-29T14:27:50;27.70;89.60
18868;DHT22;9563;49.240;9.088;2022-07-29T14:30:19;27.70;90.20
18868;DHT22;9563;49.240;9.088;2022-07-29T14:32:46;27.50;88.50
18868;DHT22;9563;49.240;9.088;2022-07-29T14:35:13;27.40;89.00
18868;DHT22;9563;49.240;9.088;2022-07-29T14:37:41;27.30;89.20
18868;DHT22;9563;49.240;9.088;2022-07-29T14:40:09;27.30;88.40
18868;DHT22;9563;49.240;9.088;2022-07-29T14:42:37;27.40;90.20
18868;DHT22;9563;49.240;9.088;2022-07-29T14:45:05;27.50;89.80
18868;DHT22;9563;49.240;9.088;2022-07-29T14:47:32;27.30;89.20
18868;DHT22;9563;49.240;9.088;2022-07-29T14:49:59;27.30;88.50
18868;DHT22;9563;49.240;9.088;2022-07-29T14:52:26;27.30;89.70
18868;DHT22;9563;49.240;9.088;2022-07-29T14:54:55;27.30;88.30
18868;DHT22;9563;49.240;9.088;2022-07-29T14:57:22;27.20;87.50
18868;DHT22;9563;49.240;9.088;2022-07-29T14:59:49;27.20;88.70
18868;DHT22;9563;49.240;9.088;2022-07-29T15:02:16;27.20;85.60
18868;DHT22;9563;49.240;9.088;2022-07-29T15:04:43;27.10;85.20
18868;DHT22;9563;49.240;9.088;2022-07-29T15:07:11;27.20;85.50
18868;DHT22;9563;49.240;9.088;2022-07-29T15:09:38;27.20;84.60
18868;DHT22;9563;49.240;9.088;2022-07-29T15:12:08;27.30;85.30
18868;DHT22;9563;49.240;9.088;2022-07-29T15:14:35;27.40;84.80
18868;DHT22;9563;49.240;9.088;2022-07-29T15:17:11;27.40;86.60
18868;DHT22;9563;49.240;9.088;2022-07-29T15:19:42;27.40;85.10
18868;DHT22;9563;49.240;9.088;2022-07-29T15:22:09;27.40;86.20
18868;DHT22;9563;49.240;9.088;2022-07-29T15:24:36;27.50;86.20
18868;DHT22;9563;49.240;9.088;2022-07-29T15:27:03;27.40;84.80
18868;DHT22;9563;49.240;9.088;2022-07-29T15:29:31;27.40;86.10
18868;DHT22;9563;49.240;9.088;2022-07-29T15:31:59;27.40;85.60
18868;DHT22;9563;49.240;9.088;2022-07-29T15:34:26;27.50;86.60
18868;DHT22;9563;49.240;9.088;2022-07-29T15:36:53;27.50;86.30
18868;DHT22;9563;49.240;9.088;2022-07-29T15:39:21;27.60;85.10
18868;DHT22;9563;49.240;9.088;2022-07-29T15:41:48;27.40;84.40
18868;DHT22;9563;49.240;9.088;2022-07-29T15:44:15;27.30;86.70
18868;DHT22;9563;49.240;9.088;2022-07-29T15:46:43;27.40;87.60
18868;DHT22;9563;49.240;9.088;2022-07-29T15:49:27;27.30;86.30
18868;DHT22;9563;49.240;9.088;2022-07-29T15:51:57;27.20;86.10
18868;DHT22;9563;49.240;9.088;2022-07-29T15:54:25;27.20;85.40
18868;DHT22;9563;49.240;9.088;2022-07-29T15:56:52;27.20;85.30
18868;DHT22;9563;49.240;9.088;2022-07-29T15:59:19;27.20;85.20
18868;DHT22;9563;49.240;9.088;2022-07-29T16:01:48;27.30;86.00
18868;DHT22;9563;49.240;9.088;2022-07-29T16:04:15;27.30;84.10
18868;DHT22;9563;49.240;9.088;2022-07-29T16:06:43;27.20;84.50
18868;DHT22;9563;49.240;9.088;2022-07-29T16:09:10;27.20;84.00